createdAt,value
2018-10-19T00:01:18.216Z,13.93
2018-10-19T00:03:54.237Z,15.10
2018-10-19T00:06:23.827Z,15.70
2018-10-19T00:08:52.959Z,15.43
2018-10-19T00:11:22.697Z,15.90
2018-10-19T00:13:52.753Z,15.80
2018-10-19T00:16:21.827Z,13.83
2018-10-19T00:18:51.639Z,14.23
2018-10-19T00:21:20.840Z,14.87
2018-10-19T00:23:50.728Z,16.23
2018-10-19T00:26:19.876Z,15.77
2018-10-19T00:28:48.976Z,15.00
2018-10-19T00:31:18.132Z,14.80
2018-10-19T00:33:47.268Z,15.43
2018-10-19T00:36:17.040Z,15.23
2018-10-19T00:38:46.143Z,15.40
2018-10-19T00:41:15.304Z,15.30
2018-10-19T00:43:44.338Z,14.10
2018-10-19T00:46:13.522Z,14.63
2018-10-19T00:48:42.803Z,14.73
2018-10-19T00:51:11.960Z,16.40
2018-10-19T00:53:41.519Z,16.00
2018-10-19T00:56:11.349Z,16.33
2018-10-19T00:58:40.429Z,15.13
2018-10-19T01:01:09.989Z,14.90
2018-10-19T01:03:39.173Z,16.23
2018-10-19T01:06:08.343Z,14.90
2018-10-19T01:08:37.996Z,16.27
2018-10-19T01:11:07.298Z,15.30
2018-10-19T01:13:37.182Z,15.90
2018-10-19T01:16:06.850Z,15.80
2018-10-19T01:18:36.026Z,17.40
2018-10-19T01:21:12.071Z,14.90
2018-10-19T01:23:41.142Z,15.83
2018-10-19T01:26:10.999Z,17.03
2018-10-19T01:28:40.155Z,15.90
2018-10-19T01:31:09.271Z,16.20
2018-10-19T01:33:38.416Z,16.23
2018-10-19T01:36:08.055Z,15.40
2018-10-19T01:38:37.335Z,14.50
2018-10-19T01:41:06.538Z,14.70
2018-10-19T01:43:35.636Z,15.90
2018-10-19T01:46:05.588Z,15.07
2018-10-19T01:48:34.647Z,15.73
2018-10-19T01:51:03.824Z,14.80
2018-10-19T01:53:32.885Z,16.07
2018-10-19T01:56:02.635Z,14.80
2018-10-19T01:58:31.742Z,16.57
2018-10-19T02:01:00.937Z,16.07
2018-10-19T02:03:30.028Z,15.73
2018-10-19T02:05:59.190Z,14.27
2018-10-19T02:08:28.309Z,15.43
2018-10-19T02:10:57.467Z,15.30
2018-10-19T02:13:26.612Z,14.90
2018-10-19T02:15:55.741Z,16.63
2018-10-19T02:18:24.873Z,15.07
2018-10-19T02:20:54.032Z,15.87
2018-10-19T02:23:23.194Z,15.17
2018-10-19T02:25:52.246Z,14.10
2018-10-19T02:28:22.034Z,14.43
2018-10-19T02:30:51.772Z,14.80
2018-10-19T02:33:20.936Z,15.30
2018-10-19T02:35:49.993Z,13.40
2018-10-19T02:38:19.116Z,13.13
2018-10-19T02:40:48.256Z,13.87
2018-10-19T02:43:17.967Z,14.73
2018-10-19T02:45:47.129Z,15.07
2018-10-19T02:48:16.200Z,14.30
2018-10-19T02:50:45.296Z,14.77
2018-10-19T02:53:14.463Z,14.73
2018-10-19T02:55:43.496Z,13.70
2018-10-19T02:58:12.559Z,15.47
2018-10-19T03:00:41.630Z,13.37
2018-10-19T03:03:10.771Z,13.67
2018-10-19T03:05:39.848Z,15.00
2018-10-19T03:08:08.952Z,15.20
2018-10-19T03:10:38.035Z,14.83
2018-10-19T03:13:07.137Z,14.33
2018-10-19T03:15:36.299Z,14.57
2018-10-19T03:18:05.707Z,15.03
2018-10-19T03:20:34.865Z,13.27
2018-10-19T03:23:04.008Z,13.83
2018-10-19T03:25:33.071Z,13.87
2018-10-19T03:28:06.054Z,14.83
2018-10-19T03:30:35.192Z,14.37
2018-10-19T03:33:04.445Z,14.90
2018-10-19T03:35:33.584Z,14.67
2018-10-19T03:38:02.659Z,14.37
2018-10-19T03:40:31.750Z,15.83
2018-10-19T03:43:00.868Z,14.13
2018-10-19T03:45:31.260Z,14.97
2018-10-19T03:48:00.400Z,14.00
2018-10-19T03:50:29.648Z,14.80
2018-10-19T03:52:58.806Z,17.30
2018-10-19T03:55:28.032Z,13.50
2018-10-19T03:57:57.154Z,15.10
2018-10-19T04:00:26.226Z,15.53
2018-10-19T04:02:55.959Z,16.07
2018-10-19T04:05:25.844Z,15.57
2018-10-19T04:07:55.453Z,14.77
2018-10-19T04:10:24.517Z,15.70
2018-10-19T04:12:53.625Z,15.27
2018-10-19T04:15:22.928Z,14.37
2018-10-19T04:17:52.056Z,15.90
2018-10-19T04:20:21.190Z,16.50
2018-10-19T04:22:54.470Z,17.30
2018-10-19T04:25:23.503Z,15.80
2018-10-19T04:27:52.668Z,14.73
2018-10-19T04:30:21.751Z,14.43
2018-10-19T04:32:50.871Z,15.20
2018-10-19T04:35:20.068Z,16.80
2018-10-19T04:37:49.181Z,15.47
2018-10-19T04:40:20.750Z,15.17
2018-10-19T04:42:50.161Z,16.60
2018-10-19T04:45:19.822Z,16.27
2018-10-19T04:47:49.525Z,16.37
2018-10-19T04:50:18.645Z,17.00
2018-10-19T04:52:47.789Z,15.00
2018-10-19T04:55:20.111Z,16.70
2018-10-19T04:57:49.370Z,17.70
2018-10-19T05:00:19.752Z,16.43
2018-10-19T05:02:49.829Z,16.00
2018-10-19T05:05:19.084Z,15.87
2018-10-19T05:07:49.269Z,16.27
2018-10-19T05:10:18.324Z,16.77
2018-10-19T05:12:47.424Z,16.27
2018-10-19T05:15:16.486Z,16.90
2018-10-19T05:17:45.756Z,16.63
2018-10-19T05:20:14.918Z,15.67
2018-10-19T05:22:44.043Z,16.07
2018-10-19T05:25:13.523Z,16.73
2018-10-19T05:27:42.613Z,17.20
2018-10-19T05:30:12.933Z,15.87
2018-10-19T05:32:42.862Z,15.83
2018-10-19T05:35:12.044Z,16.50
2018-10-19T05:37:41.811Z,17.10
2018-10-19T05:40:11.643Z,18.67
2018-10-19T05:42:41.051Z,17.10
2018-10-19T05:45:12.013Z,18.33
2018-10-19T05:47:41.131Z,18.07
2018-10-19T05:50:11.481Z,16.60
2018-10-19T05:52:40.654Z,17.47
2018-10-19T05:55:10.432Z,18.23
2018-10-19T05:57:40.875Z,17.60
2018-10-19T06:00:11.074Z,19.10
2018-10-19T06:02:40.249Z,18.87
2018-10-19T06:05:09.711Z,19.50
2018-10-19T06:07:39.554Z,20.53
2018-10-19T06:10:09.583Z,20.27
2018-10-19T06:12:39.157Z,18.73
2018-10-19T06:15:08.655Z,19.27
2018-10-19T06:17:37.863Z,18.80
2018-10-19T06:20:07.245Z,20.10
2018-10-19T06:22:36.450Z,19.83
2018-10-19T06:25:05.663Z,18.83
2018-10-19T06:27:34.899Z,19.33
2018-10-19T06:30:04.200Z,19.27
2018-10-19T06:32:33.311Z,19.57
2018-10-19T06:35:02.600Z,20.30
2018-10-19T06:37:31.650Z,19.73
2018-10-19T06:40:00.877Z,19.70
2018-10-19T06:42:30.002Z,19.70
2018-10-19T06:44:59.439Z,18.07
2018-10-19T06:47:28.720Z,18.60
2018-10-19T06:49:57.880Z,19.00
2018-10-19T06:52:26.914Z,18.10
2018-10-19T06:54:56.532Z,18.27
2018-10-19T06:57:25.652Z,18.17
2018-10-19T06:59:55.470Z,19.10
2018-10-19T07:02:24.572Z,19.00
2018-10-19T07:04:53.745Z,17.50
2018-10-19T07:07:22.888Z,18.27
2018-10-19T07:09:52.677Z,18.43
2018-10-19T07:12:21.925Z,20.80
2018-10-19T07:14:51.747Z,20.37
2018-10-19T07:17:20.909Z,18.97
2018-10-19T07:19:57.581Z,18.50
2018-10-19T07:22:26.858Z,19.37
2018-10-19T07:24:56.017Z,17.73
2018-10-19T07:27:25.308Z,20.03
2018-10-19T07:29:54.437Z,18.07
2018-10-19T07:32:23.671Z,19.13
2018-10-19T07:34:53.592Z,20.20
2018-10-19T07:37:23.607Z,20.00
2018-10-19T07:39:52.838Z,18.87
2018-10-19T07:42:22.951Z,18.70
2018-10-19T07:44:52.027Z,19.23
2018-10-19T07:47:21.282Z,20.60
2018-10-19T07:49:50.329Z,18.30
2018-10-19T07:52:20.216Z,19.77
2018-10-19T07:54:49.335Z,19.50
2018-10-19T07:57:18.467Z,20.40
2018-10-19T07:59:48.087Z,21.20
2018-10-19T08:02:17.431Z,18.90
2018-10-19T08:04:46.575Z,19.70
2018-10-19T08:07:15.777Z,19.40
2018-10-19T08:09:44.870Z,18.40
2018-10-19T08:12:14.071Z,20.20
2018-10-19T08:14:43.182Z,19.93
2018-10-19T08:17:12.400Z,18.73
2018-10-19T08:19:42.234Z,20.20
2018-10-19T08:22:11.356Z,18.97
2018-10-19T08:24:40.620Z,19.20
2018-10-19T08:27:09.774Z,21.70
2018-10-19T08:29:38.912Z,20.60
2018-10-19T08:32:09.240Z,21.47
2018-10-19T08:34:38.370Z,23.17
2018-10-19T08:37:08.337Z,23.27
2018-10-19T08:39:37.651Z,22.70
2018-10-19T08:42:07.578Z,23.87
2018-10-19T08:44:36.852Z,25.10
2018-10-19T08:47:06.770Z,22.10
2018-10-19T08:49:35.803Z,23.93
2018-10-19T08:52:05.068Z,24.30
2018-10-19T08:54:34.241Z,25.53
2018-10-19T08:57:04.130Z,24.40
2018-10-19T08:59:33.832Z,23.07
2018-10-19T09:02:03.025Z,22.50
2018-10-19T09:04:32.162Z,23.80
2018-10-19T09:07:01.627Z,23.77
2018-10-19T09:09:30.741Z,24.83
2018-10-19T09:11:59.855Z,23.23
2018-10-19T09:14:40.220Z,24.03
2018-10-19T09:17:10.388Z,22.50
2018-10-19T09:19:39.530Z,23.80
2018-10-19T09:22:08.684Z,24.63
2018-10-19T09:24:37.994Z,24.37
2018-10-19T09:27:07.302Z,24.13
2018-10-19T09:29:36.441Z,24.37
2018-10-19T09:32:05.822Z,22.80
2018-10-19T09:34:35.347Z,25.00
2018-10-19T09:37:05.206Z,23.83
2018-10-19T09:39:34.341Z,25.87
2018-10-19T09:42:03.645Z,28.03
2018-10-19T09:44:32.726Z,25.13
2018-10-19T09:47:02.473Z,26.70
2018-10-19T09:49:31.515Z,25.20
2018-10-19T09:52:00.773Z,22.93
2018-10-19T09:54:29.980Z,26.63
2018-10-19T09:56:59.343Z,25.60
2018-10-19T09:59:28.471Z,25.00
2018-10-19T10:01:57.647Z,26.53
2018-10-19T10:04:26.711Z,26.10
2018-10-19T10:06:56.043Z,24.03
2018-10-19T10:09:26.067Z,23.83
2018-10-19T10:11:55.198Z,23.00
2018-10-19T10:14:24.306Z,23.70
2018-10-19T10:16:53.766Z,25.07
2018-10-19T10:19:22.833Z,24.10
2018-10-19T10:21:52.066Z,24.10
2018-10-19T10:24:21.159Z,23.30
2018-10-19T10:26:50.264Z,24.73
2018-10-19T10:29:19.388Z,23.83
2018-10-19T10:31:48.511Z,23.30
2018-10-19T10:34:18.336Z,24.57
2018-10-19T10:36:48.416Z,24.10
2018-10-19T10:39:17.709Z,24.90
2018-10-19T10:41:46.958Z,25.90
2018-10-19T10:44:16.179Z,25.60
2018-10-19T10:46:46.769Z,25.23
2018-10-19T10:49:16.626Z,25.33
2018-10-19T10:51:45.664Z,23.37
2018-10-19T10:54:14.821Z,22.03
2018-10-19T10:56:44.027Z,24.30
2018-10-19T10:59:13.180Z,21.90
2018-10-19T11:01:42.388Z,24.67
2018-10-19T11:04:11.797Z,23.97
2018-10-19T11:06:40.874Z,25.43
2018-10-19T11:09:11.323Z,23.83
2018-10-19T11:11:40.722Z,25.30
2018-10-19T11:14:09.972Z,24.77
2018-10-19T11:16:39.272Z,24.07
2018-10-19T11:19:08.501Z,25.93
2018-10-19T11:21:37.576Z,24.63
2018-10-19T11:24:06.827Z,23.43
2018-10-19T11:26:35.928Z,25.00
2018-10-19T11:29:05.876Z,25.17
2018-10-19T11:31:35.024Z,26.00
2018-10-19T11:34:04.350Z,22.43
2018-10-19T11:36:33.527Z,22.83
2018-10-19T11:39:02.755Z,24.77
2018-10-19T11:41:32.432Z,24.00
2018-10-19T11:44:01.612Z,23.10
2018-10-19T11:46:30.811Z,22.50
2018-10-19T11:49:00.031Z,24.80
2018-10-19T11:51:29.108Z,22.00
2018-10-19T11:53:59.092Z,23.43
2018-10-19T11:56:28.415Z,23.30
2018-10-19T11:58:57.491Z,19.67
2018-10-19T12:01:26.914Z,23.03
2018-10-19T12:03:56.091Z,23.90
2018-10-19T12:06:25.333Z,22.80
2018-10-19T12:08:54.528Z,25.07
2018-10-19T12:11:26.690Z,26.20
2018-10-19T12:13:55.880Z,24.07
2018-10-19T12:16:25.055Z,23.77
2018-10-19T12:18:54.169Z,21.87
2018-10-19T12:21:23.345Z,23.37
2018-10-19T12:23:52.414Z,23.80
2018-10-19T12:26:21.552Z,24.80
2018-10-19T12:28:51.209Z,23.07
2018-10-19T12:31:23.136Z,24.27
2018-10-19T12:33:52.408Z,22.53
2018-10-19T12:36:21.685Z,22.03
2018-10-19T12:38:50.888Z,22.77
2018-10-19T12:41:19.987Z,19.93
2018-10-19T12:43:49.079Z,23.40
2018-10-19T12:46:30.832Z,21.77
2018-10-19T12:49:00.073Z,20.97
2018-10-19T12:51:29.238Z,20.20
2018-10-19T12:53:58.963Z,19.03
2018-10-19T12:56:27.948Z,18.43
2018-10-19T12:58:57.330Z,18.90
2018-10-19T13:01:27.598Z,20.47
2018-10-19T13:03:57.197Z,18.67
2018-10-19T13:06:26.502Z,16.90
2018-10-19T13:08:55.612Z,18.60
2018-10-19T13:11:25.648Z,19.80
2018-10-19T13:13:55.942Z,20.40
2018-10-19T13:16:25.200Z,21.87
2018-10-19T13:18:54.444Z,20.40
2018-10-19T13:21:24.282Z,19.03
2018-10-19T13:23:54.991Z,19.43
2018-10-19T13:26:24.116Z,18.93
2018-10-19T13:28:53.265Z,19.13
2018-10-19T13:31:22.476Z,18.17
2018-10-19T13:33:51.620Z,16.30
2018-10-19T13:36:20.832Z,16.97
2018-10-19T13:38:50.636Z,15.43
2018-10-19T13:41:19.847Z,16.70
2018-10-19T13:43:49.034Z,17.30
2018-10-19T13:46:18.197Z,18.20
2018-10-19T13:48:48.528Z,17.03
2018-10-19T13:51:18.456Z,16.43
2018-10-19T13:53:47.660Z,17.00
2018-10-19T13:56:16.893Z,17.83
2018-10-19T13:58:46.633Z,18.40
2018-10-19T14:01:15.913Z,16.03
2018-10-19T14:03:45.775Z,16.83
2018-10-19T14:06:15.207Z,17.10
2018-10-19T14:08:45.035Z,17.50
2018-10-19T14:11:14.682Z,15.90
2018-10-19T14:13:43.827Z,15.57
2018-10-19T14:16:13.053Z,18.27
2018-10-19T14:18:42.132Z,16.30
2018-10-19T14:21:11.530Z,16.23
2018-10-19T14:23:40.556Z,15.80
2018-10-19T14:26:10.009Z,16.50
2018-10-19T14:28:39.241Z,15.60
2018-10-19T14:31:08.427Z,16.97
2018-10-19T14:33:38.222Z,15.63
2018-10-19T14:36:07.275Z,15.73
2018-10-19T14:38:36.416Z,16.13
2018-10-19T14:41:06.169Z,15.20
2018-10-19T14:43:35.906Z,16.80
2018-10-19T14:46:05.071Z,17.27
2018-10-19T14:48:34.317Z,17.00
2018-10-19T14:51:03.570Z,17.93
2018-10-19T14:53:32.652Z,15.77
2018-10-19T14:56:01.812Z,14.83
2018-10-19T14:58:31.292Z,15.53
2018-10-19T15:01:00.561Z,15.67
2018-10-19T15:03:29.802Z,15.03
2018-10-19T15:06:00.553Z,14.77
2018-10-19T15:08:29.762Z,15.50
2018-10-19T15:10:59.087Z,14.30
2018-10-19T15:13:28.281Z,15.03
2018-10-19T15:16:04.943Z,13.70
2018-10-19T15:18:34.070Z,13.90
2018-10-19T15:21:03.412Z,13.83
2018-10-19T15:23:32.723Z,13.00
2018-10-19T15:26:01.918Z,12.50
2018-10-19T15:28:31.132Z,12.20
2018-10-19T15:31:00.525Z,13.00
2018-10-19T15:33:29.636Z,12.10
2018-10-19T15:35:58.770Z,11.63
2018-10-19T15:38:28.019Z,13.27
2018-10-19T15:40:57.317Z,11.43
2018-10-19T15:43:26.460Z,12.93
2018-10-19T15:45:55.949Z,12.33
2018-10-19T15:48:25.091Z,13.20
2018-10-19T15:50:54.539Z,12.10
2018-10-19T15:53:23.683Z,12.70
2018-10-19T15:55:52.938Z,11.03
2018-10-19T15:58:23.637Z,13.17
2018-10-19T16:00:53.352Z,12.87
2018-10-19T16:03:22.591Z,32.80
2018-10-19T16:05:51.778Z,14.00
2018-10-19T16:08:21.363Z,13.67
2018-10-19T16:10:50.587Z,13.10
2018-10-19T16:13:19.812Z,11.50
2018-10-19T16:15:49.108Z,11.80
2018-10-19T16:18:18.264Z,11.70
2018-10-19T16:20:47.530Z,12.17
2018-10-19T16:23:16.676Z,11.90
2018-10-19T16:25:45.983Z,11.03
2018-10-19T16:28:15.198Z,11.10
2018-10-19T16:30:44.319Z,10.03
2018-10-19T16:33:14.043Z,9.37
2018-10-19T16:35:43.283Z,9.67
2018-10-19T16:38:13.218Z,8.50
2018-10-19T16:40:42.664Z,8.27
2018-10-19T16:43:11.824Z,9.77
2018-10-19T16:45:40.970Z,8.63
2018-10-19T16:48:10.142Z,8.70
2018-10-19T16:50:39.180Z,8.43
2018-10-19T16:53:10.136Z,9.67
2018-10-19T16:55:39.269Z,7.80
2018-10-19T16:58:08.750Z,10.90
2018-10-19T17:00:37.989Z,8.93
2018-10-19T17:03:07.141Z,9.70
2018-10-19T17:05:36.186Z,10.90
2018-10-19T17:08:05.857Z,9.17
2018-10-19T17:10:35.079Z,9.13
2018-10-19T17:13:04.316Z,9.97
2018-10-19T17:15:33.796Z,9.30
2018-10-19T17:18:02.964Z,9.43
2018-10-19T17:20:35.730Z,9.20
2018-10-19T17:23:04.993Z,8.63
2018-10-19T17:25:34.363Z,10.20
2018-10-19T17:28:03.480Z,8.57
2018-10-19T17:30:32.709Z,9.10
2018-10-19T17:33:02.015Z,9.40
2018-10-19T17:35:31.255Z,9.60
2018-10-19T17:38:00.521Z,9.77
2018-10-19T17:40:36.171Z,10.60
2018-10-19T17:43:06.198Z,10.87
2018-10-19T17:45:35.083Z,10.60
2018-10-19T17:48:04.260Z,9.93
2018-10-19T17:50:33.460Z,11.30
2018-10-19T17:53:03.475Z,12.27
2018-10-19T17:55:32.691Z,12.97
2018-10-19T17:58:02.008Z,12.27
2018-10-19T18:00:31.321Z,12.93
2018-10-19T18:03:00.490Z,13.80
2018-10-19T18:05:30.392Z,33.50
2018-10-19T18:08:00.691Z,14.80
2018-10-19T18:10:29.923Z,14.37
2018-10-19T18:13:05.675Z,13.30
2018-10-19T18:15:36.827Z,12.43
2018-10-19T18:18:06.965Z,12.93
2018-10-19T18:20:36.135Z,11.33
2018-10-19T18:23:05.604Z,12.27
2018-10-19T18:25:34.860Z,12.33
2018-10-19T18:28:04.151Z,12.40
2018-10-19T18:30:34.010Z,10.97
2018-10-19T18:33:04.007Z,12.87
2018-10-19T18:35:33.178Z,13.50
2018-10-19T18:38:02.478Z,15.97
2018-10-19T18:40:32.205Z,15.20
2018-10-19T18:43:02.206Z,15.87
2018-10-19T18:45:31.540Z,16.03
2018-10-19T18:48:00.705Z,13.07
2018-10-19T18:50:30.018Z,12.27
2018-10-19T18:52:59.098Z,14.70
2018-10-19T18:55:29.114Z,13.17
2018-10-19T18:57:58.407Z,11.57
2018-10-19T19:00:28.505Z,12.60
2018-10-19T19:02:57.702Z,12.73
2018-10-19T19:05:27.251Z,11.60
2018-10-19T19:07:56.575Z,15.63
2018-10-19T19:10:25.707Z,11.90
2018-10-19T19:13:00.367Z,11.60
2018-10-19T19:15:29.765Z,10.87
2018-10-19T19:17:58.965Z,11.17
2018-10-19T19:20:29.968Z,11.67
2018-10-19T19:22:59.210Z,9.40
2018-10-19T19:25:33.933Z,11.63
2018-10-19T19:28:03.232Z,10.90
2018-10-19T19:30:32.554Z,11.30
2018-10-19T19:33:07.119Z,10.73
2018-10-19T19:35:36.391Z,11.67
2018-10-19T19:38:06.223Z,11.70
2018-10-19T19:40:40.881Z,10.43
2018-10-19T19:43:10.225Z,12.10
2018-10-19T19:45:39.434Z,11.37
2018-10-19T19:48:14.045Z,11.57
2018-10-19T19:50:44.697Z,11.10
2018-10-19T19:53:14.617Z,11.90
2018-10-19T19:55:44.954Z,11.37
2018-10-19T19:58:14.241Z,12.63
2018-10-19T20:00:43.327Z,13.40
2018-10-19T20:03:12.461Z,13.70
2018-10-19T20:05:42.231Z,11.30
2018-10-19T20:08:12.262Z,11.60
2018-10-19T20:10:41.523Z,16.80
2018-10-19T20:13:10.805Z,11.10
2018-10-19T20:15:40.085Z,11.37
2018-10-19T20:18:09.435Z,10.03
2018-10-19T20:20:38.787Z,11.80
2018-10-19T20:23:19.267Z,10.83
2018-10-19T20:31:03.710Z,11.67
2018-10-19T20:33:40.451Z,12.40
2018-10-19T20:36:21.611Z,11.70
2018-10-19T20:41:40.300Z,11.20
2018-10-19T20:44:20.565Z,10.97
2018-10-19T20:46:50.823Z,11.70
2018-10-19T20:49:22.293Z,11.23
2018-10-19T20:51:53.019Z,11.30
2018-10-19T20:54:27.136Z,12.30
2018-10-19T20:56:56.504Z,10.30
2018-10-19T20:59:26.603Z,12.63
2018-10-19T21:01:56.784Z,12.00
2018-10-19T21:04:26.956Z,10.90
2018-10-19T21:06:56.714Z,11.37
2018-10-19T21:09:25.992Z,11.20
2018-10-19T21:11:55.240Z,12.53
2018-10-19T21:14:24.407Z,12.50
2018-10-19T21:16:54.260Z,12.17
2018-10-19T21:19:23.473Z,11.67
2018-10-19T21:21:52.657Z,12.13
2018-10-19T21:24:21.886Z,11.53
2018-10-19T21:26:57.760Z,12.00
2018-10-19T21:29:26.884Z,12.23
2018-10-19T21:31:56.073Z,13.43
2018-10-19T21:34:25.202Z,11.70
2018-10-19T21:36:54.620Z,11.80
2018-10-19T21:39:23.841Z,12.43
2018-10-19T21:41:53.205Z,11.97
2018-10-19T21:44:22.431Z,11.10
2018-10-19T21:46:52.021Z,11.27
2018-10-19T21:49:21.831Z,12.87
2018-10-19T21:51:51.777Z,11.83
2018-10-19T21:54:20.999Z,11.63
2018-10-19T21:56:50.127Z,11.50
2018-10-19T21:59:19.304Z,11.27
2018-10-19T22:01:48.461Z,12.20
2018-10-19T22:04:17.591Z,11.87
2018-10-19T22:06:46.792Z,12.43
2018-10-19T22:09:16.600Z,12.43
2018-10-19T22:11:45.693Z,11.20
2018-10-19T22:14:15.495Z,12.07
2018-10-19T22:16:45.493Z,12.23
2018-10-19T22:19:16.044Z,12.13
2018-10-19T22:21:45.589Z,11.60
2018-10-19T22:24:14.812Z,12.03
2018-10-19T22:26:50.454Z,12.60
2018-10-19T22:29:19.640Z,13.97
2018-10-19T22:31:49.731Z,12.13
2018-10-19T22:34:18.860Z,12.63
2018-10-19T22:36:49.038Z,13.70
2018-10-19T22:39:18.198Z,12.80
2018-10-19T22:41:47.943Z,12.60
2018-10-19T22:44:17.080Z,13.03
2018-10-19T22:46:46.294Z,13.20
2018-10-19T22:49:15.546Z,12.13
2018-10-19T22:51:44.659Z,12.10
2018-10-19T22:54:13.815Z,11.80
2018-10-19T22:56:42.909Z,14.03
2018-10-19T23:00:18.323Z,13.50
2018-10-19T23:05:14.430Z,11.40
2018-10-19T23:07:43.986Z,11.20
2018-10-19T23:10:13.154Z,12.53
2018-10-19T23:12:42.314Z,14.37
2018-10-19T23:15:11.531Z,11.20
2018-10-19T23:17:40.920Z,10.90
2018-10-19T23:20:10.022Z,13.13
2018-10-19T23:22:39.248Z,13.80
2018-10-19T23:25:08.815Z,14.50
2018-10-19T23:27:38.117Z,13.77
2018-10-19T23:30:12.260Z,14.67
2018-10-19T23:32:41.504Z,15.60
2018-10-19T23:48:06.939Z,15.23
2018-10-19T23:50:36.704Z,16.73
2018-10-19T23:53:07.630Z,16.73
2018-10-19T23:55:36.666Z,17.73
2018-10-19T23:58:19.427Z,19.53
